createdAt,value
2018-07-31T00:00:57.000Z,100232
2018-07-31T00:02:57.000Z,100229
2018-07-31T00:03:57.000Z,100240
2018-07-31T00:04:57.000Z,100234
2018-07-31T00:06:57.000Z,100232
2018-07-31T00:08:57.000Z,100233
2018-07-31T00:10:57.000Z,100236
2018-07-31T00:12:57.000Z,100238
2018-07-31T00:14:57.000Z,100239
2018-07-31T00:16:57.000Z,100239
2018-07-31T00:18:57.000Z,100240
2018-07-31T00:20:57.000Z,100237
2018-07-31T00:21:57.000Z,100233
2018-07-31T00:22:57.000Z,100240
2018-07-31T00:24:57.000Z,100242
2018-07-31T00:25:57.000Z,100246
2018-07-31T00:27:57.000Z,100247
2018-07-31T00:29:41.000Z,100235
2018-07-31T00:30:57.000Z,100241
2018-07-31T00:31:57.000Z,100240
2018-07-31T00:32:57.000Z,100236
2018-07-31T00:34:26.000Z,100236
2018-07-31T00:35:57.000Z,100234
2018-07-31T00:37:57.000Z,100232
2018-07-31T00:39:57.000Z,100233
2018-07-31T00:41:57.000Z,100223
2018-07-31T00:43:57.000Z,100229
2018-07-31T00:45:57.000Z,100221
2018-07-31T00:46:57.000Z,100227
2018-07-31T00:48:57.000Z,100222
2018-07-31T00:50:41.000Z,100220
2018-07-31T00:51:57.000Z,100216
2018-07-31T00:53:57.000Z,100219
2018-07-31T00:55:57.000Z,100218
2018-07-31T00:56:57.000Z,100213
2018-07-31T00:58:57.000Z,100217
2018-07-31T01:00:57.000Z,100219
2018-07-31T01:01:57.000Z,100216
2018-07-31T01:02:57.000Z,100214
2018-07-31T01:04:41.000Z,100217
2018-07-31T01:05:57.000Z,100205
2018-07-31T01:07:41.000Z,100209
2018-07-31T01:08:57.000Z,100209
2018-07-31T01:09:57.000Z,100207
2018-07-31T01:11:57.000Z,100204
2018-07-31T01:13:57.000Z,100206
2018-07-31T01:14:57.000Z,100215
2018-07-31T01:16:57.000Z,100217
2018-07-31T01:18:57.000Z,100222
2018-07-31T01:19:57.000Z,100216
2018-07-31T01:21:57.000Z,100215
2018-07-31T01:22:57.000Z,100214
2018-07-31T01:24:57.000Z,100215
2018-07-31T01:26:57.000Z,100220
2018-07-31T01:28:57.000Z,100214
2018-07-31T01:29:57.000Z,100213
2018-07-31T01:31:57.000Z,100216
2018-07-31T01:33:42.000Z,100213
2018-07-31T01:35:57.000Z,100213
2018-07-31T01:37:57.000Z,100205
2018-07-31T01:39:57.000Z,100205
2018-07-31T01:41:57.000Z,100214
2018-07-31T01:43:57.000Z,100214
2018-07-31T01:45:57.000Z,100210
2018-07-31T01:46:57.000Z,100207
2018-07-31T01:48:57.000Z,100203
2018-07-31T01:50:57.000Z,100202
2018-07-31T01:52:57.000Z,100207
2018-07-31T01:54:57.000Z,100206
2018-07-31T01:55:57.000Z,100208
2018-07-31T01:57:57.000Z,100204
2018-07-31T01:59:57.000Z,100204
2018-07-31T02:00:57.000Z,100206
2018-07-31T02:02:57.000Z,100212
2018-07-31T02:03:57.000Z,100209
2018-07-31T02:05:57.000Z,100209
2018-07-31T02:07:57.000Z,100209
2018-07-31T02:09:57.000Z,100210
2018-07-31T02:11:42.000Z,100214
2018-07-31T02:12:57.000Z,100217
2018-07-31T02:13:57.000Z,100215
2018-07-31T02:15:57.000Z,100213
2018-07-31T02:17:57.000Z,100208
2018-07-31T02:19:57.000Z,100209
2018-07-31T02:21:42.000Z,100209
2018-07-31T02:22:57.000Z,100214
2018-07-31T02:24:57.000Z,100218
2018-07-31T02:26:27.000Z,100215
2018-07-31T02:27:57.000Z,100217
2018-07-31T02:29:57.000Z,100212
2018-07-31T02:30:57.000Z,100218
2018-07-31T02:32:42.000Z,100212
2018-07-31T02:33:57.000Z,100213
2018-07-31T02:34:57.000Z,100213
2018-07-31T02:35:57.000Z,100214
2018-07-31T02:37:57.000Z,100212
2018-07-31T02:39:57.000Z,100204
2018-07-31T02:40:57.000Z,100205
2018-07-31T02:41:57.000Z,100210
2018-07-31T02:43:57.000Z,100204
2018-07-31T02:45:57.000Z,100212
2018-07-31T02:47:57.000Z,100215
2018-07-31T02:48:57.000Z,100217
2018-07-31T02:50:57.000Z,100217
2018-07-31T02:52:57.000Z,100219
2018-07-31T02:54:57.000Z,100217
2018-07-31T02:56:27.000Z,100214
2018-07-31T02:57:57.000Z,100219
2018-07-31T02:59:57.000Z,100217
2018-07-31T03:01:57.000Z,100213
2018-07-31T03:03:57.000Z,100213
2018-07-31T03:05:57.000Z,100213
2018-07-31T03:07:57.000Z,100215
2018-07-31T03:09:57.000Z,100216
2018-07-31T03:11:27.000Z,100215
2018-07-31T03:12:57.000Z,100208
2018-07-31T03:13:57.000Z,100215
2018-07-31T03:14:57.000Z,100218
2018-07-31T03:16:57.000Z,100213
2018-07-31T03:18:42.000Z,100215
2018-07-31T03:19:57.000Z,100216
2018-07-31T03:21:57.000Z,100224
2018-07-31T03:23:57.000Z,100218
2018-07-31T03:25:57.000Z,100220
2018-07-31T03:26:57.000Z,100222
2018-07-31T03:27:57.000Z,100222
2018-07-31T03:29:42.000Z,100228
2018-07-31T03:30:57.000Z,100227
2018-07-31T03:32:57.000Z,100220
2018-07-31T03:34:57.000Z,100231
2018-07-31T03:36:57.000Z,100224
2018-07-31T03:38:57.000Z,100226
2018-07-31T03:40:57.000Z,100226
2018-07-31T03:42:57.000Z,100225
2018-07-31T03:44:42.000Z,100230
2018-07-31T03:45:57.000Z,100229
2018-07-31T03:47:57.000Z,100230
2018-07-31T03:48:57.000Z,100232
2018-07-31T03:50:57.000Z,100228
2018-07-31T03:52:42.000Z,100233
2018-07-31T03:53:57.000Z,100237
2018-07-31T03:55:42.000Z,100238
2018-07-31T03:56:57.000Z,100241
2018-07-31T03:58:57.000Z,100242
2018-07-31T03:59:57.000Z,100238
2018-07-31T04:01:57.000Z,100242
2018-07-31T04:02:57.000Z,100238
2018-07-31T04:04:42.000Z,100239
2018-07-31T04:05:57.000Z,100240
2018-07-31T04:07:57.000Z,100239
2018-07-31T04:09:57.000Z,100241
2018-07-31T04:11:57.000Z,100241
2018-07-31T04:13:57.000Z,100238
2018-07-31T04:15:57.000Z,100241
2018-07-31T04:17:57.000Z,100238
2018-07-31T04:19:26.000Z,100244
2018-07-31T04:20:57.000Z,100241
2018-07-31T04:22:57.000Z,100240
2018-07-31T04:24:42.000Z,100240
2018-07-31T04:25:57.000Z,100252
2018-07-31T04:27:57.000Z,100258
2018-07-31T04:29:57.000Z,100261
2018-07-31T04:31:42.000Z,100259
2018-07-31T04:32:57.000Z,100263
2018-07-31T04:34:57.000Z,100264
2018-07-31T04:36:57.000Z,100261
2018-07-31T04:37:57.000Z,100259
2018-07-31T04:39:57.000Z,100258
2018-07-31T04:41:42.000Z,100260
2018-07-31T04:42:57.000Z,100261
2018-07-31T04:43:57.000Z,100262
2018-07-31T09:01:32.000Z,100323
2018-07-31T09:05:25.000Z,100325
2018-07-31T09:07:25.000Z,100328
2018-07-31T09:09:25.000Z,100327
2018-07-31T09:11:25.000Z,100332
2018-07-31T09:12:25.000Z,100329
2018-07-31T09:13:25.000Z,100330
2018-07-31T09:15:25.000Z,100325
2018-07-31T09:16:25.000Z,100329
2018-07-31T09:18:10.000Z,100335
2018-07-31T09:19:25.000Z,100327
2018-07-31T09:20:25.000Z,100329
2018-07-31T09:22:10.000Z,100333
2018-07-31T09:23:25.000Z,100329
2018-07-31T09:25:25.000Z,100342
2018-07-31T09:27:10.000Z,100343
2018-07-31T09:28:25.000Z,100348
2018-07-31T09:30:25.000Z,100339
2018-07-31T09:32:25.000Z,100341
2018-07-31T09:34:25.000Z,100338
2018-07-31T09:36:25.000Z,100341
2018-07-31T09:38:25.000Z,100344
2018-07-31T09:40:25.000Z,100344
2018-07-31T09:42:25.000Z,100334
2018-07-31T09:43:25.000Z,100334
2018-07-31T09:45:25.000Z,100344
2018-07-31T09:46:25.000Z,100349
2018-07-31T09:47:25.000Z,100354
2018-07-31T09:49:25.000Z,100350
2018-07-31T09:50:25.000Z,100354
2018-07-31T09:52:25.000Z,100348
2018-07-31T09:54:25.000Z,100349
2018-07-31T09:55:25.000Z,100353
2018-07-31T09:56:25.000Z,100346
2018-07-31T09:58:25.000Z,100354
2018-07-31T10:00:25.000Z,100353
2018-07-31T10:02:10.000Z,100346
2018-07-31T10:03:25.000Z,100339
2018-07-31T10:05:26.000Z,100341
2018-07-31T10:07:26.000Z,100339
2018-07-31T10:09:26.000Z,100339
2018-07-31T10:11:26.000Z,100339
2018-07-31T10:12:26.000Z,100333
2018-07-31T10:14:26.000Z,100348
2018-07-31T10:16:26.000Z,100340
2018-07-31T10:17:26.000Z,100347
2018-07-31T10:19:10.000Z,100346
2018-07-31T10:20:26.000Z,100352
2018-07-31T10:21:55.000Z,100351
2018-07-31T10:23:26.000Z,100360
2018-07-31T10:24:26.000Z,100355
2018-07-31T10:26:26.000Z,100351
2018-07-31T10:28:26.000Z,100352
2018-07-31T10:30:26.000Z,100348
2018-07-31T10:32:10.000Z,100353
2018-07-31T10:33:26.000Z,100352
2018-07-31T10:34:26.000Z,100359
2018-07-31T10:36:26.000Z,100360
2018-07-31T10:37:26.000Z,100359
2018-07-31T10:39:26.000Z,100358
2018-07-31T10:40:26.000Z,100356
2018-07-31T10:41:26.000Z,100358
2018-07-31T10:43:10.000Z,100366
2018-07-31T10:44:26.000Z,100361
2018-07-31T10:45:26.000Z,100365
2018-07-31T10:46:26.000Z,100364
2018-07-31T10:47:26.000Z,100358
2018-07-31T10:49:26.000Z,100366
2018-07-31T10:50:26.000Z,100357
2018-07-31T10:52:26.000Z,100363
2018-07-31T10:54:26.000Z,100366
2018-07-31T10:56:26.000Z,100357
2018-07-31T10:57:26.000Z,100359
2018-07-31T10:59:10.000Z,100365
2018-07-31T11:00:26.000Z,100365
2018-07-31T11:01:26.000Z,100369
2018-07-31T11:02:55.000Z,100363
2018-07-31T11:04:26.000Z,100361
2018-07-31T11:06:26.000Z,100355
2018-07-31T11:08:11.000Z,100342
2018-07-31T11:09:26.000Z,100359
2018-07-31T11:11:26.000Z,100371
2018-07-31T11:13:26.000Z,100364
2018-07-31T11:15:11.000Z,100373
2018-07-31T11:16:26.000Z,100357
2018-07-31T11:18:26.000Z,100359
2018-07-31T11:19:26.000Z,100366
2018-07-31T11:21:26.000Z,100368
2018-07-31T11:23:11.000Z,100374
2018-07-31T11:24:26.000Z,100366
2018-07-31T11:25:26.000Z,100376
2018-07-31T11:26:26.000Z,100368
2018-07-31T11:28:26.000Z,100371
2018-07-31T11:29:26.000Z,100378
2018-07-31T11:31:26.000Z,100374
2018-07-31T11:32:56.000Z,100369
2018-07-31T11:34:26.000Z,100367
2018-07-31T11:35:56.000Z,100372
2018-07-31T11:37:26.000Z,100365
2018-07-31T11:39:11.000Z,100384
2018-07-31T11:41:26.000Z,100385
2018-07-31T11:42:26.000Z,100378
2018-07-31T11:44:11.000Z,100383
2018-07-31T11:45:26.000Z,100376
2018-07-31T11:46:26.000Z,100380
2018-07-31T11:48:26.000Z,100373
2018-07-31T11:50:26.000Z,100379
2018-07-31T11:52:26.000Z,100361
2018-07-31T11:54:11.000Z,100372
2018-07-31T11:55:26.000Z,100365
2018-07-31T11:56:26.000Z,100370
2018-07-31T11:58:26.000Z,100367
2018-07-31T11:59:26.000Z,100367
2018-07-31T12:01:11.000Z,100366
2018-07-31T12:02:26.000Z,100370
2018-07-31T12:03:26.000Z,100369
2018-07-31T12:05:26.000Z,100374
2018-07-31T12:07:26.000Z,100385
2018-07-31T12:09:11.000Z,100379
2018-07-31T12:10:26.000Z,100385
2018-07-31T12:12:25.000Z,100381
2018-07-31T12:14:25.000Z,100373
2018-07-31T12:16:25.000Z,100369
2018-07-31T12:17:55.000Z,100369
2018-07-31T12:19:25.000Z,100370
2018-07-31T12:21:25.000Z,100368
2018-07-31T12:23:25.000Z,100375
2018-07-31T12:25:25.000Z,100364
2018-07-31T12:27:10.000Z,100362
2018-07-31T12:28:25.000Z,100373
2018-07-31T12:30:25.000Z,100363
2018-07-31T12:32:10.000Z,100360
2018-07-31T12:33:25.000Z,100362
2018-07-31T12:35:25.000Z,100371
2018-07-31T12:37:10.000Z,100373
2018-07-31T12:38:25.000Z,100370
2018-07-31T12:40:25.000Z,100369
2018-07-31T12:42:25.000Z,100382
2018-07-31T12:44:25.000Z,100375
2018-07-31T12:46:25.000Z,100375
2018-07-31T12:48:10.000Z,100385
2018-07-31T12:49:25.000Z,100371
2018-07-31T12:50:25.000Z,100377
2018-07-31T12:52:25.000Z,100378
2018-07-31T12:54:25.000Z,100374
2018-07-31T12:56:25.000Z,100370
2018-07-31T12:57:25.000Z,100369
2018-07-31T12:59:25.000Z,100377
2018-07-31T13:01:10.000Z,100371
2018-07-31T13:02:25.000Z,100383
2018-07-31T13:04:10.000Z,100391
2018-07-31T13:05:25.000Z,100387
2018-07-31T13:07:10.000Z,100384
2018-07-31T13:08:25.000Z,100380
2018-07-31T13:09:25.000Z,100377
2018-07-31T13:11:25.000Z,100376
2018-07-31T13:12:25.000Z,100371
2018-07-31T13:14:25.000Z,100368
2018-07-31T13:15:25.000Z,100375
2018-07-31T13:17:25.000Z,100376
2018-07-31T13:19:25.000Z,100381
2018-07-31T13:21:10.000Z,100384
2018-07-31T13:22:25.000Z,100379
2018-07-31T13:23:25.000Z,100377
2018-07-31T13:25:25.000Z,100365
2018-07-31T13:27:10.000Z,100386
2018-07-31T13:28:25.000Z,100375
2018-07-31T13:30:25.000Z,100379
2018-07-31T13:31:25.000Z,100375
2018-07-31T13:33:25.000Z,100382
2018-07-31T13:35:25.000Z,100377
2018-07-31T13:36:25.000Z,100367
2018-07-31T13:38:25.000Z,100376
2018-07-31T13:40:25.000Z,100376
2018-07-31T13:41:25.000Z,100378
2018-07-31T13:43:25.000Z,100374
2018-07-31T13:45:25.000Z,100378
2018-07-31T13:47:25.000Z,100384
2018-07-31T13:48:25.000Z,100385
2018-07-31T13:50:25.000Z,100387
2018-07-31T13:52:25.000Z,100385
2018-07-31T13:54:25.000Z,100390
2018-07-31T13:56:10.000Z,100380
2018-07-31T13:57:25.000Z,100381
2018-07-31T13:59:25.000Z,100380
2018-07-31T14:01:25.000Z,100375
2018-07-31T14:03:25.000Z,100373
2018-07-31T14:05:25.000Z,100380
2018-07-31T14:06:25.000Z,100379
2018-07-31T14:08:25.000Z,100378
2018-07-31T14:10:25.000Z,100383
2018-07-31T14:11:25.000Z,100381
2018-07-31T14:13:10.000Z,100387
2018-07-31T14:14:25.000Z,100384
2018-07-31T14:16:25.000Z,100365
2018-07-31T14:18:10.000Z,100375
2018-07-31T14:19:25.000Z,100371
2018-07-31T14:20:25.000Z,100371
2018-07-31T14:22:25.000Z,100370
2018-07-31T14:24:25.000Z,100380
2018-07-31T14:26:25.000Z,100375
2018-07-31T14:28:25.000Z,100377
2018-07-31T14:29:25.000Z,100375
2018-07-31T14:31:25.000Z,100374
2018-07-31T14:33:25.000Z,100381
2018-07-31T14:34:25.000Z,100383
2018-07-31T14:35:25.000Z,100381
2018-07-31T14:36:25.000Z,100380
2018-07-31T14:38:25.000Z,100392
2018-07-31T14:40:10.000Z,100387
2018-07-31T14:41:25.000Z,100381
2018-07-31T14:42:25.000Z,100379
2018-07-31T14:44:25.000Z,100382
2018-07-31T14:46:25.000Z,100384
2018-07-31T14:48:25.000Z,100384
2018-07-31T14:49:25.000Z,100385
2018-07-31T14:51:25.000Z,100393
2018-07-31T14:52:25.000Z,100398
2018-07-31T14:53:25.000Z,100394
2018-07-31T14:55:25.000Z,100393
2018-07-31T14:57:25.000Z,100397
2018-07-31T14:58:55.000Z,100390
2018-07-31T15:00:25.000Z,100402
2018-07-31T15:02:25.000Z,100396
2018-07-31T15:04:25.000Z,100411
2018-07-31T15:06:25.000Z,100407
2018-07-31T15:08:25.000Z,100401
2018-07-31T15:10:25.000Z,100397
2018-07-31T15:12:10.000Z,100396
2018-07-31T15:13:25.000Z,100396
2018-07-31T15:15:10.000Z,100400
2018-07-31T15:16:25.000Z,100392
2018-07-31T15:18:25.000Z,100404
2018-07-31T15:20:25.000Z,100404
2018-07-31T15:21:25.000Z,100409
2018-07-31T15:23:25.000Z,100405
2018-07-31T15:24:25.000Z,100415
2018-07-31T15:26:25.000Z,100407
2018-07-31T15:27:25.000Z,100411
2018-07-31T15:29:25.000Z,100408
2018-07-31T15:30:25.000Z,100404
2018-07-31T15:32:25.000Z,100409
2018-07-31T15:34:25.000Z,100404
2018-07-31T15:36:25.000Z,100408
2018-07-31T15:37:25.000Z,100408
2018-07-31T15:39:25.000Z,100418
2018-07-31T15:41:25.000Z,100420
2018-07-31T15:42:25.000Z,100413
2018-07-31T15:43:25.000Z,100417
2018-07-31T15:45:10.000Z,100422
2018-07-31T15:46:25.000Z,100424
2018-07-31T15:48:25.000Z,100425
2018-07-31T15:50:25.000Z,100422
2018-07-31T15:52:25.000Z,100415
2018-07-31T15:53:25.000Z,100415
2018-07-31T15:55:25.000Z,100415
2018-07-31T15:57:25.000Z,100419
2018-07-31T15:59:25.000Z,100422
2018-07-31T16:01:25.000Z,100408
2018-07-31T16:03:25.000Z,100414
2018-07-31T16:05:25.000Z,100411
2018-07-31T16:06:25.000Z,100418
2018-07-31T16:07:25.000Z,100404
2018-07-31T16:09:25.000Z,100408
2018-07-31T16:10:25.000Z,100406
2018-07-31T16:12:25.000Z,100410
2018-07-31T16:14:25.000Z,100418
2018-07-31T16:16:25.000Z,100413
2018-07-31T16:17:25.000Z,100420
2018-07-31T16:18:25.000Z,100413
2018-07-31T16:20:25.000Z,100414
2018-07-31T16:21:25.000Z,100412
2018-07-31T16:23:25.000Z,100421
2018-07-31T16:25:25.000Z,100412
2018-07-31T16:26:25.000Z,100415
2018-07-31T16:28:11.000Z,100424
2018-07-31T16:29:26.000Z,100416
2018-07-31T16:31:26.000Z,100420
2018-07-31T16:32:26.000Z,100424
2018-07-31T16:34:26.000Z,100418
2018-07-31T16:35:55.000Z,100431
2018-07-31T16:37:26.000Z,100426
2018-07-31T16:38:26.000Z,100428
2018-07-31T16:39:26.000Z,100423
2018-07-31T16:41:26.000Z,100426
2018-07-31T16:42:26.000Z,100425
2018-07-31T16:44:26.000Z,100421
2018-07-31T16:46:26.000Z,100426
2018-07-31T16:47:55.000Z,100430
2018-07-31T16:49:26.000Z,100435
2018-07-31T16:51:26.000Z,100434
2018-07-31T16:52:26.000Z,100438
2018-07-31T16:54:26.000Z,100433
2018-07-31T16:56:26.000Z,100433
2018-07-31T16:58:26.000Z,100435
2018-07-31T16:59:26.000Z,100436
2018-07-31T17:01:26.000Z,100431
2018-07-31T17:03:11.000Z,100433
2018-07-31T17:04:26.000Z,100434
2018-07-31T17:06:26.000Z,100436
2018-07-31T17:08:26.000Z,100432
2018-07-31T17:10:26.000Z,100439
2018-07-31T17:11:26.000Z,100437
2018-07-31T17:12:26.000Z,100436
2018-07-31T17:14:11.000Z,100434
2018-07-31T17:15:26.000Z,100434
2018-07-31T17:17:26.000Z,100441
2018-07-31T17:19:11.000Z,100436
2018-07-31T17:20:26.000Z,100439
2018-07-31T17:21:26.000Z,100434
2018-07-31T17:23:26.000Z,100447
2018-07-31T17:25:26.000Z,100451
2018-07-31T17:27:11.000Z,100449
2018-07-31T17:28:26.000Z,100446
2018-07-31T17:30:26.000Z,100444
2018-07-31T17:31:25.000Z,100439
2018-07-31T17:33:10.000Z,100443
2018-07-31T17:34:25.000Z,100442
2018-07-31T17:36:25.000Z,100448
2018-07-31T17:37:25.000Z,100449
2018-07-31T17:38:25.000Z,100443
2018-07-31T17:39:55.000Z,100453
2018-07-31T17:41:25.000Z,100450
2018-07-31T17:43:25.000Z,100454
2018-07-31T17:44:55.000Z,100454
2018-07-31T17:46:25.000Z,100454
2018-07-31T17:48:10.000Z,100452
2018-07-31T17:49:25.000Z,100459
2018-07-31T17:50:25.000Z,100462
2018-07-31T17:52:25.000Z,100462
2018-07-31T17:53:25.000Z,100460
2018-07-31T17:55:10.000Z,100467
2018-07-31T17:56:25.000Z,100469
2018-07-31T17:57:25.000Z,100472
2018-07-31T17:59:25.000Z,100474
2018-07-31T18:00:25.000Z,100477
2018-07-31T18:02:25.000Z,100480
2018-07-31T18:03:55.000Z,100487
2018-07-31T18:05:25.000Z,100485
2018-07-31T18:07:25.000Z,100487
2018-07-31T18:09:25.000Z,100492
2018-07-31T18:11:10.000Z,100492
2018-07-31T18:12:25.000Z,100499
2018-07-31T18:13:25.000Z,100500
2018-07-31T18:15:25.000Z,100503
2018-07-31T18:17:25.000Z,100505
2018-07-31T18:19:25.000Z,100507
2018-07-31T18:21:25.000Z,100498
2018-07-31T18:22:25.000Z,100504
2018-07-31T18:24:25.000Z,100506
2018-07-31T18:25:25.000Z,100512
2018-07-31T18:27:25.000Z,100511
2018-07-31T18:28:25.000Z,100512
2018-07-31T18:29:25.000Z,100514
2018-07-31T18:31:25.000Z,100507
2018-07-31T18:33:25.000Z,100518
2018-07-31T18:35:26.000Z,100521
2018-07-31T18:37:26.000Z,100520
2018-07-31T18:39:26.000Z,100526
2018-07-31T18:40:26.000Z,100522
2018-07-31T18:41:26.000Z,100524
2018-07-31T18:42:26.000Z,100527
2018-07-31T18:44:26.000Z,100529
2018-07-31T18:46:26.000Z,100530
2018-07-31T18:47:26.000Z,100526
2018-07-31T18:49:26.000Z,100526
2018-07-31T18:51:26.000Z,100532
2018-07-31T18:53:11.000Z,100531
2018-07-31T18:54:11.000Z,100544
2018-07-31T18:55:26.000Z,100542
2018-07-31T18:57:26.000Z,100544
2018-07-31T18:58:26.000Z,100552
2018-07-31T19:00:26.000Z,100550
2018-07-31T19:01:26.000Z,100555
2018-07-31T19:02:26.000Z,100554
2018-07-31T19:04:26.000Z,100555
2018-07-31T19:06:26.000Z,100561
2018-07-31T19:08:26.000Z,100559
2018-07-31T19:10:26.000Z,100563
2018-07-31T19:11:26.000Z,100558
2018-07-31T19:13:26.000Z,100566
2018-07-31T19:15:26.000Z,100579
2018-07-31T19:17:26.000Z,100578
2018-07-31T19:18:26.000Z,100581
2018-07-31T19:20:11.000Z,100575
2018-07-31T19:21:26.000Z,100588
2018-07-31T19:23:26.000Z,100592
2018-07-31T19:25:26.000Z,100596
2018-07-31T19:26:26.000Z,100592
2018-07-31T19:28:26.000Z,100598
2018-07-31T19:29:26.000Z,100600
2018-07-31T19:31:26.000Z,100602
2018-07-31T19:33:26.000Z,100608
2018-07-31T19:34:26.000Z,100605
2018-07-31T19:36:26.000Z,100606
2018-07-31T19:37:26.000Z,100612
2018-07-31T19:38:26.000Z,100609
2018-07-31T19:40:26.000Z,100615
2018-07-31T19:41:26.000Z,100615
2018-07-31T19:43:11.000Z,100613
2018-07-31T19:44:26.000Z,100611
2018-07-31T19:46:26.000Z,100616
2018-07-31T19:48:26.000Z,100622
2018-07-31T19:50:26.000Z,100624
2018-07-31T19:51:26.000Z,100624
2018-07-31T19:53:26.000Z,100630
2018-07-31T19:54:26.000Z,100630
2018-07-31T19:56:26.000Z,100632
2018-07-31T19:58:11.000Z,100638
2018-07-31T19:59:26.000Z,100639
2018-07-31T20:01:26.000Z,100643
2018-07-31T20:03:26.000Z,100639
2018-07-31T20:05:26.000Z,100644
2018-07-31T20:06:26.000Z,100646
2018-07-31T20:08:26.000Z,100649
2018-07-31T20:10:26.000Z,100649
2018-07-31T20:12:26.000Z,100654
2018-07-31T20:13:26.000Z,100665
2018-07-31T20:15:26.000Z,100662
2018-07-31T20:17:26.000Z,100657
2018-07-31T20:19:26.000Z,100660
2018-07-31T20:21:11.000Z,100663
2018-07-31T20:22:26.000Z,100660
2018-07-31T20:24:26.000Z,100664
2018-07-31T20:26:26.000Z,100664
2018-07-31T20:28:26.000Z,100659
2018-07-31T20:30:26.000Z,100662
2018-07-31T20:31:26.000Z,100666
2018-07-31T20:32:26.000Z,100671
2018-07-31T20:34:26.000Z,100671
2018-07-31T20:35:26.000Z,100670
2018-07-31T20:37:26.000Z,100672
2018-07-31T20:38:26.000Z,100673
2018-07-31T20:40:26.000Z,100680
2018-07-31T20:41:26.000Z,100684
2018-07-31T20:42:55.000Z,100686
2018-07-31T20:44:26.000Z,100684
2018-07-31T20:46:26.000Z,100685
2018-07-31T20:47:26.000Z,100687
2018-07-31T20:49:11.000Z,100685
2018-07-31T20:50:26.000Z,100693
2018-07-31T20:52:26.000Z,100694
2018-07-31T20:54:26.000Z,100692
2018-07-31T20:56:11.000Z,100696
2018-07-31T20:57:26.000Z,100689
2018-07-31T20:59:26.000Z,100688
2018-07-31T21:00:26.000Z,100687
2018-07-31T21:02:11.000Z,100690
2018-07-31T21:03:26.000Z,100685
2018-07-31T21:04:26.000Z,100683
2018-07-31T21:06:26.000Z,100688
2018-07-31T21:08:11.000Z,100688
2018-07-31T21:09:26.000Z,100692
2018-07-31T21:11:11.000Z,100697
2018-07-31T21:12:26.000Z,100703
2018-07-31T21:13:26.000Z,100701
2018-07-31T21:15:26.000Z,100703
2018-07-31T21:17:26.000Z,100699
2018-07-31T21:18:26.000Z,100703
2018-07-31T21:19:26.000Z,100704
2018-07-31T21:21:26.000Z,100708
2018-07-31T21:22:26.000Z,100709
2018-07-31T21:24:26.000Z,100712
2018-07-31T21:25:26.000Z,100713
2018-07-31T21:27:26.000Z,100714
2018-07-31T21:29:26.000Z,100715
2018-07-31T21:31:26.000Z,100712
2018-07-31T21:32:26.000Z,100713
2018-07-31T21:34:26.000Z,100713
2018-07-31T21:36:11.000Z,100711
2018-07-31T21:37:26.000Z,100715
2018-07-31T21:39:26.000Z,100718
2018-07-31T21:41:26.000Z,100719
2018-07-31T21:43:26.000Z,100715
2018-07-31T21:45:25.000Z,100719
2018-07-31T21:46:25.000Z,100719
2018-07-31T21:48:25.000Z,100720
2018-07-31T21:49:25.000Z,100728
2018-07-31T21:51:10.000Z,100732
2018-07-31T21:52:25.000Z,100733
2018-07-31T21:54:10.000Z,100735
2018-07-31T21:55:25.000Z,100736
2018-07-31T21:57:25.000Z,100741
2018-07-31T21:59:25.000Z,100738
2018-07-31T22:00:25.000Z,100728
2018-07-31T22:02:25.000Z,100737
2018-07-31T22:04:10.000Z,100734
2018-07-31T22:05:25.000Z,100740
2018-07-31T22:06:25.000Z,100738
2018-07-31T22:07:25.000Z,100744
2018-07-31T22:09:25.000Z,100745
2018-07-31T22:11:25.000Z,100744
2018-07-31T22:12:25.000Z,100746
2018-07-31T22:14:25.000Z,100749
2018-07-31T22:16:25.000Z,100752
2018-07-31T22:18:25.000Z,100744
2018-07-31T22:20:25.000Z,100758
2018-07-31T22:21:25.000Z,100755
2018-07-31T22:23:25.000Z,100763
2018-07-31T22:24:55.000Z,100757
2018-07-31T22:26:25.000Z,100763
2018-07-31T22:27:55.000Z,100758
2018-07-31T22:29:25.000Z,100761
2018-07-31T22:31:10.000Z,100755
2018-07-31T22:32:25.000Z,100755
2018-07-31T22:34:25.000Z,100766
2018-07-31T22:36:10.000Z,100765
2018-07-31T22:37:25.000Z,100765
2018-07-31T22:39:25.000Z,100758
2018-07-31T22:40:25.000Z,100763
2018-07-31T22:42:10.000Z,100760
2018-07-31T22:43:25.000Z,100763
2018-07-31T22:45:10.000Z,100763
2018-07-31T22:46:25.000Z,100771
2018-07-31T22:48:10.000Z,100773
2018-07-31T22:49:25.000Z,100775
2018-07-31T22:50:25.000Z,100780
2018-07-31T22:52:25.000Z,100776
2018-07-31T22:54:25.000Z,100780
2018-07-31T22:55:25.000Z,100776
2018-07-31T22:57:25.000Z,100774
2018-07-31T22:58:25.000Z,100782
2018-07-31T23:00:25.000Z,100782
2018-07-31T23:02:25.000Z,100786
2018-07-31T23:04:25.000Z,100784
2018-07-31T23:05:25.000Z,100790
2018-07-31T23:07:25.000Z,100784
2018-07-31T23:09:25.000Z,100781
2018-07-31T23:11:25.000Z,100784
2018-07-31T23:13:25.000Z,100785
2018-07-31T23:15:25.000Z,100787
2018-07-31T23:16:25.000Z,100789
2018-07-31T23:18:25.000Z,100791
2018-07-31T23:19:25.000Z,100786
2018-07-31T23:21:25.000Z,100795
2018-07-31T23:23:25.000Z,100794
2018-07-31T23:25:25.000Z,100802
2018-07-31T23:27:10.000Z,100799
2018-07-31T23:28:25.000Z,100794
2018-07-31T23:30:25.000Z,100799
2018-07-31T23:32:10.000Z,100797
2018-07-31T23:33:25.000Z,100794
2018-07-31T23:34:25.000Z,100790
2018-07-31T23:36:25.000Z,100791
2018-07-31T23:37:25.000Z,100787
2018-07-31T23:39:10.000Z,100787
2018-07-31T23:40:25.000Z,100790
2018-07-31T23:42:25.000Z,100794
2018-07-31T23:44:25.000Z,100795
2018-07-31T23:45:25.000Z,100789
2018-07-31T23:47:25.000Z,100790
2018-07-31T23:48:55.000Z,100794
2018-07-31T23:50:25.000Z,100790
2018-07-31T23:51:25.000Z,100784
2018-07-31T23:53:26.000Z,100783
2018-07-31T23:54:26.000Z,100782
2018-07-31T23:55:26.000Z,100780
2018-07-31T23:57:11.000Z,100778
2018-07-31T23:58:11.000Z,100775
2018-07-31T23:59:26.000Z,100779
